createdAt,value
2023-03-08T00:01:25.944Z,7.35
2023-03-08T00:03:53.859Z,7.20
2023-03-08T00:06:20.544Z,6.97
2023-03-08T00:08:48.671Z,7.45
2023-03-08T00:11:15.937Z,7.28
2023-03-08T00:13:42.693Z,9.00
2023-03-08T00:16:11.072Z,10.70
2023-03-08T00:18:37.866Z,9.27
2023-03-08T00:21:06.580Z,7.68
2023-03-08T00:23:35.597Z,7.13
2023-03-08T00:26:02.323Z,7.60
2023-03-08T00:28:29.296Z,9.45
2023-03-08T00:30:59.789Z,7.05
2023-03-08T00:33:27.032Z,8.00
2023-03-08T00:35:59.475Z,7.22
2023-03-08T00:38:26.558Z,8.52
2023-03-08T00:40:53.445Z,5.95
2023-03-08T00:43:23.521Z,7.00
2023-03-08T00:45:53.165Z,7.20
2023-03-08T00:48:20.173Z,6.70
2023-03-08T00:50:49.493Z,6.82
2023-03-08T00:53:18.252Z,7.35
2023-03-08T00:55:52.710Z,7.07
2023-03-08T00:58:19.737Z,6.65
2023-03-08T01:00:46.544Z,5.70
2023-03-08T01:03:15.857Z,7.25
2023-03-08T01:05:43.700Z,7.25
2023-03-08T01:08:15.087Z,5.72
2023-03-08T01:10:47.518Z,6.82
2023-03-08T01:13:14.401Z,6.65
2023-03-08T01:15:43.697Z,6.88
2023-03-08T01:18:10.382Z,5.93
2023-03-08T01:20:40.067Z,6.90
2023-03-08T01:23:07.890Z,5.55
2023-03-08T01:25:36.714Z,5.50
2023-03-08T01:28:05.761Z,7.55
2023-03-08T01:30:32.387Z,5.97
2023-03-08T01:33:01.353Z,6.57
2023-03-08T01:35:30.275Z,6.35
2023-03-08T01:37:59.516Z,5.63
2023-03-08T01:40:30.972Z,5.68
2023-03-08T01:42:57.618Z,5.88
2023-03-08T01:46:01.740Z,5.70
2023-03-08T01:48:33.838Z,6.10
2023-03-08T01:51:03.180Z,7.10
2023-03-08T01:53:30.387Z,6.65
2023-03-08T01:55:59.252Z,6.93
2023-03-08T01:58:28.602Z,5.82
2023-03-08T02:01:00.653Z,5.28
2023-03-08T02:03:29.581Z,5.18
2023-03-08T02:06:01.054Z,5.82
2023-03-08T02:08:27.834Z,5.25
2023-03-08T02:10:57.391Z,5.63
2023-03-08T02:13:26.780Z,5.28
2023-03-08T02:15:55.140Z,5.90
2023-03-08T02:18:23.995Z,5.60
2023-03-08T02:20:52.849Z,5.18
2023-03-08T02:23:26.809Z,5.47
2023-03-08T02:25:54.369Z,5.28
2023-03-08T02:28:25.051Z,5.93
2023-03-08T02:30:54.380Z,6.70
2023-03-08T02:33:23.374Z,6.53
2023-03-08T02:35:50.253Z,6.85
2023-03-08T02:38:17.926Z,5.43
2023-03-08T02:40:44.670Z,4.95
2023-03-08T02:43:16.321Z,4.80
2023-03-08T02:45:45.464Z,4.93
2023-03-08T02:48:12.222Z,5.22
2023-03-08T02:50:38.960Z,5.95
2023-03-08T02:53:05.771Z,5.68
2023-03-08T02:55:38.624Z,5.35
2023-03-08T02:58:07.902Z,5.03
2023-03-08T03:00:34.655Z,6.95
2023-03-08T03:03:04.215Z,5.40
2023-03-08T03:05:30.862Z,4.93
2023-03-08T03:07:59.907Z,4.93
2023-03-08T03:10:29.042Z,4.90
2023-03-08T03:12:55.672Z,4.82
2023-03-08T03:15:26.943Z,6.45
2023-03-08T03:20:20.120Z,5.35
2023-03-08T03:22:49.204Z,6.35
2023-03-08T03:25:19.043Z,5.80
2023-03-08T03:27:45.680Z,4.82
2023-03-08T03:30:12.721Z,5.30
2023-03-08T03:32:39.581Z,4.78
2023-03-08T03:35:06.733Z,5.80
2023-03-08T03:37:35.072Z,5.63
2023-03-08T03:40:01.798Z,5.00
2023-03-08T03:42:28.606Z,5.47
2023-03-08T03:44:55.309Z,6.47
2023-03-08T03:47:22.077Z,4.85
2023-03-08T03:49:48.846Z,5.00
2023-03-08T03:52:15.568Z,5.03
2023-03-08T03:54:44.563Z,4.88
2023-03-08T03:57:13.588Z,5.07
2023-03-08T03:59:42.791Z,4.82
2023-03-08T04:02:09.600Z,4.45
2023-03-08T04:04:36.369Z,4.30
2023-03-08T04:07:03.015Z,4.50
2023-03-08T04:09:29.768Z,4.53
2023-03-08T04:12:05.202Z,4.57
2023-03-08T04:14:34.227Z,4.90
2023-03-08T04:17:01.059Z,4.50
2023-03-08T04:19:27.863Z,5.13
2023-03-08T04:21:54.701Z,4.50
2023-03-08T04:24:21.446Z,5.07
2023-03-08T04:26:50.253Z,4.65
2023-03-08T04:29:19.153Z,4.45
2023-03-08T04:31:48.329Z,4.55
2023-03-08T04:34:15.035Z,5.70
2023-03-08T04:36:47.144Z,5.13
2023-03-08T04:39:15.988Z,4.75
2023-03-08T04:41:42.785Z,5.43
2023-03-08T04:44:09.454Z,6.43
2023-03-08T04:46:37.083Z,5.35
2023-03-08T04:49:06.140Z,4.72
2023-03-08T04:51:32.863Z,4.70
2023-03-08T04:54:04.274Z,4.60
2023-03-08T04:56:33.173Z,5.00
2023-03-08T04:59:00.784Z,4.65
2023-03-08T05:01:32.218Z,4.43
2023-03-08T05:03:58.943Z,4.95
2023-03-08T05:06:26.831Z,4.68
2023-03-08T05:08:56.680Z,5.45
2023-03-08T05:11:25.299Z,4.07
2023-03-08T05:13:53.561Z,4.88
2023-03-08T05:16:22.535Z,4.38
2023-03-08T05:18:49.905Z,4.10
2023-03-08T05:21:18.174Z,4.30
2023-03-08T05:23:47.968Z,4.97
2023-03-08T05:26:19.060Z,4.82
2023-03-08T05:28:46.040Z,4.20
2023-03-08T05:31:16.839Z,4.88
2023-03-08T05:33:44.370Z,4.57
2023-03-08T05:36:14.231Z,4.47
2023-03-08T05:38:43.847Z,5.43
2023-03-08T05:41:14.952Z,4.78
2023-03-08T05:43:41.746Z,6.15
2023-03-08T05:46:11.198Z,5.72
2023-03-08T05:48:37.948Z,4.97
2023-03-08T05:51:17.367Z,5.10
2023-03-08T05:53:44.179Z,15.18
2023-03-08T05:56:15.104Z,18.50
2023-03-08T05:58:47.741Z,16.23
2023-03-08T06:01:24.550Z,20.77
2023-03-08T06:06:39.606Z,18.33
2023-03-08T06:09:10.759Z,18.75
2023-03-08T06:11:39.655Z,18.55
2023-03-08T06:14:08.553Z,15.38
2023-03-08T06:16:39.982Z,18.48
2023-03-08T06:19:09.223Z,17.00
2023-03-08T06:21:36.000Z,21.90
2023-03-08T06:24:04.794Z,26.05
2023-03-08T06:26:33.620Z,16.52
2023-03-08T06:29:04.400Z,14.88
2023-03-08T06:31:33.803Z,12.77
2023-03-08T06:34:03.710Z,11.70
2023-03-08T06:36:35.066Z,14.48
2023-03-08T06:41:35.302Z,14.23
2023-03-08T06:46:30.790Z,14.18
2023-03-08T06:49:03.212Z,12.27
2023-03-08T06:51:30.005Z,12.00
2023-03-08T06:53:56.774Z,10.57
2023-03-08T06:56:28.079Z,13.73
2023-03-08T07:01:25.960Z,11.65
2023-03-08T07:03:59.950Z,13.85
2023-03-08T07:06:28.876Z,11.65
2023-03-08T07:08:57.674Z,10.70
2023-03-08T07:11:29.593Z,12.98
2023-03-08T07:13:57.504Z,11.63
2023-03-08T07:16:26.293Z,11.18
2023-03-08T07:18:53.231Z,10.20
2023-03-08T07:21:22.116Z,9.32
2023-03-08T07:23:53.326Z,8.65
2023-03-08T07:26:21.311Z,11.40
2023-03-08T07:28:53.957Z,8.48
2023-03-08T07:31:20.703Z,12.23
2023-03-08T07:33:52.081Z,9.88
2023-03-08T07:36:21.074Z,10.95
2023-03-08T07:38:49.972Z,11.05
2023-03-08T07:41:16.708Z,8.88
2023-03-08T07:43:45.603Z,9.43
2023-03-08T07:46:14.479Z,9.27
2023-03-08T07:48:43.363Z,10.30
2023-03-08T07:51:10.421Z,10.68
2023-03-08T07:53:37.475Z,8.32
2023-03-08T07:56:04.639Z,11.52
2023-03-08T07:58:31.400Z,10.20
2023-03-08T08:01:00.407Z,8.43
2023-03-08T08:03:28.706Z,8.90
2023-03-08T08:05:55.511Z,8.18
2023-03-08T08:08:24.355Z,9.57
2023-03-08T08:10:51.122Z,9.70
2023-03-08T08:13:22.416Z,9.10
2023-03-08T08:18:29.252Z,7.93
2023-03-08T08:21:03.465Z,8.60
2023-03-08T08:23:30.286Z,8.00
2023-03-08T08:25:59.621Z,7.22
2023-03-08T08:28:26.553Z,7.72
2023-03-08T08:31:05.069Z,8.85
2023-03-08T08:33:32.234Z,9.90
2023-03-08T08:36:10.322Z,7.50
2023-03-08T08:38:40.458Z,9.07
2023-03-08T08:41:10.325Z,8.73
2023-03-08T08:43:37.008Z,6.25
2023-03-08T08:46:06.322Z,8.02
2023-03-08T08:48:33.372Z,6.82
2023-03-08T08:51:00.672Z,8.00
2023-03-08T08:53:27.421Z,7.13
2023-03-08T08:55:54.243Z,9.32
2023-03-08T08:58:25.717Z,6.82
2023-03-08T09:00:52.475Z,8.07
2023-03-08T09:03:21.307Z,6.68
2023-03-08T09:05:50.332Z,9.27
2023-03-08T09:08:19.405Z,7.80
2023-03-08T09:10:48.364Z,7.80
2023-03-08T09:13:15.146Z,8.27
2023-03-08T09:15:44.253Z,8.45
2023-03-08T09:18:13.142Z,8.18
2023-03-08T09:20:39.868Z,9.23
2023-03-08T09:23:06.847Z,7.93
2023-03-08T09:25:35.824Z,7.85
2023-03-08T09:28:07.197Z,8.52
2023-03-08T09:30:33.885Z,7.70
2023-03-08T09:33:05.832Z,7.97
2023-03-08T09:35:35.635Z,9.60
2023-03-08T09:38:07.284Z,9.35
2023-03-08T09:40:39.174Z,7.95
2023-03-08T09:43:13.255Z,8.73
2023-03-08T09:45:42.133Z,10.57
2023-03-08T09:48:25.732Z,11.05
2023-03-08T09:50:57.371Z,11.55
2023-03-08T09:53:54.705Z,8.23
2023-03-08T09:56:45.282Z,12.48
2023-03-08T09:59:25.461Z,8.80
2023-03-08T10:02:00.726Z,10.40
2023-03-08T10:04:36.466Z,12.13
2023-03-08T10:07:28.367Z,10.18
2023-03-08T10:10:13.290Z,14.45
2023-03-08T10:13:01.500Z,14.93
2023-03-08T10:15:28.371Z,11.05
2023-03-08T10:18:04.361Z,12.13
2023-03-08T10:20:37.779Z,13.52
2023-03-08T10:23:18.623Z,12.70
2023-03-08T10:25:48.115Z,7.80
2023-03-08T10:28:21.546Z,9.43
2023-03-08T10:30:50.913Z,10.73
2023-03-08T10:33:19.358Z,8.57
2023-03-08T10:36:00.141Z,10.73
2023-03-08T10:38:32.081Z,11.27
2023-03-08T10:41:02.481Z,9.65
2023-03-08T10:43:35.866Z,10.77
2023-03-08T10:46:11.329Z,10.93
2023-03-08T10:48:40.284Z,12.60
2023-03-08T10:51:15.503Z,10.43
2023-03-08T10:53:55.056Z,10.73
2023-03-08T10:56:38.496Z,9.55
2023-03-08T10:59:06.581Z,7.63
2023-03-08T11:01:48.660Z,9.88
2023-03-08T11:04:16.844Z,11.20
2023-03-08T11:06:43.547Z,9.43
2023-03-08T11:09:37.101Z,9.98
2023-03-08T11:12:08.399Z,10.63
2023-03-08T11:14:35.603Z,10.63
2023-03-08T11:17:23.708Z,10.20
2023-03-08T11:20:00.158Z,9.43
2023-03-08T11:22:39.924Z,8.73
2023-03-08T11:25:09.522Z,9.20
2023-03-08T11:27:51.512Z,10.45
2023-03-08T11:30:41.149Z,9.93
2023-03-08T11:33:26.845Z,9.20
2023-03-08T11:36:05.599Z,9.05
2023-03-08T11:38:34.711Z,8.02
2023-03-08T11:41:16.083Z,8.73
2023-03-08T11:46:42.885Z,13.82
2023-03-08T11:49:15.407Z,10.30
2023-03-08T11:51:51.311Z,10.02
2023-03-08T11:54:36.551Z,9.68
2023-03-08T11:57:04.255Z,8.00
2023-03-08T11:59:44.761Z,11.35
2023-03-08T12:02:20.547Z,10.33
2023-03-08T12:05:23.007Z,6.13
2023-03-08T12:07:56.096Z,6.45
2023-03-08T12:10:45.019Z,7.00
2023-03-08T12:13:35.656Z,7.22
2023-03-08T12:16:20.969Z,4.37
2023-03-08T12:19:10.610Z,6.15
2023-03-08T12:21:51.117Z,8.30
2023-03-08T12:24:43.710Z,5.17
2023-03-08T12:27:33.521Z,7.38
2023-03-08T12:30:26.112Z,6.75
2023-03-08T12:32:54.871Z,7.15
2023-03-08T12:35:24.604Z,6.43
2023-03-08T12:38:10.036Z,18.45
2023-03-08T12:40:45.303Z,7.07
2023-03-08T12:43:13.100Z,7.85
2023-03-08T12:45:57.138Z,6.28
2023-03-08T12:48:25.655Z,6.13
2023-03-08T12:51:27.651Z,8.25
2023-03-08T12:54:02.578Z,5.65
2023-03-08T12:56:50.002Z,4.90
2023-03-08T12:59:16.815Z,6.65
2023-03-08T13:01:45.004Z,6.10
2023-03-08T13:04:38.714Z,6.55
2023-03-08T13:07:09.990Z,5.90
2023-03-08T13:09:37.958Z,6.40
2023-03-08T13:12:16.706Z,6.45
2023-03-08T13:14:48.158Z,5.78
2023-03-08T13:17:34.890Z,4.88
2023-03-08T13:20:21.294Z,3.75
2023-03-08T13:23:03.174Z,5.88
2023-03-08T13:25:35.870Z,6.55
2023-03-08T13:28:06.274Z,4.35
2023-03-08T13:30:35.308Z,9.50
2023-03-08T13:33:08.790Z,3.97
2023-03-08T13:35:35.724Z,4.13
2023-03-08T13:38:02.501Z,4.85
2023-03-08T13:40:29.937Z,4.22
2023-03-08T13:43:05.600Z,7.88
2023-03-08T13:45:32.285Z,4.88
2023-03-08T13:48:00.088Z,4.75
2023-03-08T13:50:32.015Z,5.00
2023-03-08T13:52:59.421Z,6.25
2023-03-08T13:55:34.474Z,4.13
2023-03-08T13:58:03.316Z,6.47
2023-03-08T14:00:37.368Z,3.67
2023-03-08T14:03:06.701Z,3.72
2023-03-08T14:05:42.828Z,5.55
2023-03-08T14:08:20.373Z,6.13
2023-03-08T14:10:54.348Z,4.50
2023-03-08T14:13:27.807Z,4.22
2023-03-08T14:15:59.352Z,5.00
2023-03-08T14:18:33.634Z,4.65
2023-03-08T14:21:19.974Z,3.83
2023-03-08T14:23:57.375Z,4.75
2023-03-08T14:26:40.549Z,4.10
2023-03-08T14:29:23.138Z,4.85
2023-03-08T14:31:59.929Z,4.70
2023-03-08T14:34:36.129Z,6.60
2023-03-08T14:37:11.748Z,12.15
2023-03-08T14:39:46.237Z,14.60
2023-03-08T14:42:41.819Z,11.23
2023-03-08T14:45:26.808Z,9.50
2023-03-08T14:48:03.953Z,6.68
2023-03-08T14:50:32.404Z,6.10
2023-03-08T14:53:02.649Z,6.65
2023-03-08T14:55:31.499Z,8.65
2023-03-08T14:58:00.528Z,7.45
2023-03-08T15:00:30.528Z,6.20
2023-03-08T15:02:58.187Z,6.88
2023-03-08T15:05:29.518Z,8.05
2023-03-08T15:07:59.756Z,9.75
2023-03-08T15:10:32.247Z,11.23
2023-03-08T15:13:01.590Z,19.98
2023-03-08T15:15:30.605Z,22.88
2023-03-08T15:17:57.349Z,23.75
2023-03-08T15:20:25.120Z,30.00
2023-03-08T15:22:54.457Z,29.98
2023-03-08T15:25:42.354Z,31.27
2023-03-08T15:28:11.831Z,38.42
2023-03-08T15:30:38.656Z,34.03
2023-03-08T15:33:08.010Z,37.72
2023-03-08T15:35:36.845Z,34.92
2023-03-08T15:38:03.550Z,38.53
2023-03-08T15:40:36.432Z,36.03
2023-03-08T15:43:05.446Z,36.20
2023-03-08T15:45:34.412Z,39.63
2023-03-08T15:48:06.374Z,41.53
2023-03-08T15:50:35.642Z,42.70
2023-03-08T15:53:04.837Z,43.08
2023-03-08T15:55:34.793Z,36.67
2023-03-08T15:58:04.153Z,37.65
2023-03-08T16:00:30.959Z,40.22
2023-03-08T16:02:57.739Z,42.53
2023-03-08T16:05:28.568Z,39.05
2023-03-08T16:07:59.945Z,42.83
2023-03-08T16:10:33.136Z,39.60
2023-03-08T16:13:02.019Z,35.50
2023-03-08T16:15:28.749Z,35.08
2023-03-08T16:18:00.371Z,34.50
2023-03-08T16:20:27.042Z,35.88
2023-03-08T16:22:54.966Z,38.83
2023-03-08T16:25:23.199Z,34.33
2023-03-08T16:27:50.077Z,36.88
2023-03-08T16:30:21.415Z,35.42
2023-03-08T16:32:48.220Z,32.45
2023-03-08T16:35:17.175Z,28.75
2023-03-08T16:37:44.005Z,31.20
2023-03-08T16:40:14.413Z,31.88
2023-03-08T16:42:44.025Z,34.77
2023-03-08T16:45:11.095Z,31.75
2023-03-08T16:47:37.774Z,32.33
2023-03-08T16:50:04.838Z,32.67
2023-03-08T16:52:33.813Z,27.90
2023-03-08T16:55:00.622Z,28.80
2023-03-08T16:57:27.416Z,25.55
2023-03-08T16:59:56.823Z,30.95
2023-03-08T17:02:26.001Z,26.90
2023-03-08T17:04:55.138Z,26.58
2023-03-08T17:07:21.938Z,28.05
2023-03-08T17:09:50.666Z,26.33
2023-03-08T17:12:19.475Z,28.05
2023-03-08T17:14:48.314Z,24.90
2023-03-08T17:17:17.510Z,24.13
2023-03-08T17:19:46.331Z,25.08
2023-03-08T17:22:13.012Z,25.95
2023-03-08T17:24:41.910Z,22.90
2023-03-08T17:27:10.730Z,26.63
2023-03-08T17:29:40.408Z,23.10
2023-03-08T17:32:11.832Z,25.38
2023-03-08T17:34:38.676Z,22.25
2023-03-08T17:37:11.422Z,21.40
2023-03-08T17:39:41.609Z,20.67
2023-03-08T17:42:11.764Z,22.92
2023-03-08T17:44:40.608Z,23.73
2023-03-08T17:47:07.388Z,21.02
2023-03-08T17:49:36.439Z,23.67
2023-03-08T17:52:03.209Z,22.08
2023-03-08T17:54:32.032Z,22.38
2023-03-08T17:57:00.817Z,20.90
2023-03-08T17:59:29.944Z,21.63
2023-03-08T18:01:56.675Z,21.27
2023-03-08T18:04:23.563Z,22.83
2023-03-08T18:06:52.486Z,20.02
2023-03-08T18:09:21.266Z,19.90
2023-03-08T18:11:50.089Z,20.50
2023-03-08T18:14:16.898Z,18.23
2023-03-08T18:16:45.076Z,18.77
2023-03-08T18:19:14.062Z,21.45
2023-03-08T18:21:41.638Z,18.98
2023-03-08T18:24:11.362Z,17.88
2023-03-08T18:26:40.296Z,19.13
2023-03-08T18:29:11.772Z,18.50
2023-03-08T18:31:43.158Z,16.88
2023-03-08T18:34:10.125Z,17.52
2023-03-08T18:36:40.211Z,15.45
2023-03-08T18:39:10.182Z,17.48
2023-03-08T18:41:38.936Z,16.38
2023-03-08T18:44:07.982Z,18.73
2023-03-08T18:46:39.554Z,16.08
2023-03-08T18:49:12.244Z,15.32
2023-03-08T18:51:44.190Z,17.58
2023-03-08T18:54:13.547Z,15.55
2023-03-08T18:56:42.818Z,15.98
2023-03-08T18:59:12.458Z,15.23
2023-03-08T19:01:41.273Z,15.80
2023-03-08T19:04:10.159Z,15.57
2023-03-08T19:06:41.596Z,14.00
2023-03-08T19:09:12.606Z,17.05
2023-03-08T19:11:39.281Z,15.50
2023-03-08T19:14:08.401Z,15.55
2023-03-08T19:16:35.885Z,13.93
2023-03-08T19:19:09.316Z,15.02
2023-03-08T19:21:44.319Z,13.40
2023-03-08T19:24:15.093Z,16.10
2023-03-08T19:26:47.248Z,14.02
2023-03-08T19:29:16.924Z,14.02
2023-03-08T19:31:57.438Z,15.63
2023-03-08T19:34:26.112Z,15.67
2023-03-08T19:36:55.507Z,13.70
2023-03-08T19:39:27.308Z,16.00
2023-03-08T19:41:55.789Z,15.07
2023-03-08T19:44:22.805Z,13.13
2023-03-08T19:46:52.672Z,15.80
2023-03-08T19:49:23.082Z,14.55
2023-03-08T19:51:52.975Z,12.50
2023-03-08T19:54:19.816Z,14.88
2023-03-08T19:56:48.746Z,14.18
2023-03-08T19:59:20.197Z,15.18
2023-03-08T20:01:51.570Z,12.82
2023-03-08T20:04:20.348Z,14.43
2023-03-08T20:06:48.308Z,13.15
2023-03-08T20:09:21.822Z,14.15
2023-03-08T20:11:56.479Z,14.63
2023-03-08T20:14:27.211Z,13.80
2023-03-08T20:16:54.421Z,14.20
2023-03-08T20:19:21.193Z,13.45
2023-03-08T20:21:48.435Z,14.32
2023-03-08T20:24:18.207Z,15.02
2023-03-08T20:26:45.042Z,13.93
2023-03-08T20:29:11.787Z,13.13
2023-03-08T20:31:40.598Z,14.88
2023-03-08T20:34:07.369Z,13.52
2023-03-08T20:36:34.160Z,12.68
2023-03-08T20:39:00.995Z,14.05
2023-03-08T20:41:27.891Z,12.57
2023-03-08T20:43:57.454Z,14.25
2023-03-08T20:46:26.154Z,15.30
2023-03-08T20:48:52.909Z,13.32
2023-03-08T20:51:24.345Z,13.77
2023-03-08T20:53:52.314Z,14.55
2023-03-08T20:56:23.421Z,13.43
2023-03-08T20:58:50.122Z,13.82
2023-03-08T21:01:20.706Z,15.18
2023-03-08T21:03:47.808Z,15.65
2023-03-08T21:06:16.188Z,13.90
2023-03-08T21:08:43.209Z,13.88
2023-03-08T21:11:09.947Z,14.68
2023-03-08T21:13:41.269Z,15.15
2023-03-08T21:16:11.039Z,14.63
2023-03-08T21:18:37.674Z,15.05
2023-03-08T21:21:07.497Z,14.27
2023-03-08T21:23:34.144Z,16.42
2023-03-08T21:26:01.149Z,14.82
2023-03-08T21:28:27.968Z,14.82
2023-03-08T21:30:57.152Z,14.40
2023-03-08T21:33:26.478Z,14.93
2023-03-08T21:35:53.238Z,15.23
2023-03-08T21:38:20.196Z,15.18
2023-03-08T21:40:49.503Z,15.00
2023-03-08T21:43:16.127Z,13.90
2023-03-08T21:45:42.917Z,16.52
2023-03-08T21:48:09.604Z,14.77
2023-03-08T21:50:41.929Z,14.35
2023-03-08T21:53:10.860Z,15.43
2023-03-08T21:55:43.310Z,15.88
2023-03-08T21:58:13.029Z,16.30
2023-03-08T22:00:42.533Z,15.55
2023-03-08T22:03:11.340Z,15.88
2023-03-08T22:05:40.327Z,15.40
2023-03-08T22:08:07.008Z,16.67
2023-03-08T22:10:33.697Z,15.55
2023-03-08T22:13:00.440Z,16.45
2023-03-08T22:15:27.207Z,18.48
2023-03-08T22:17:56.125Z,17.25
2023-03-08T22:20:27.577Z,16.10
2023-03-08T22:22:56.393Z,16.58
2023-03-08T22:25:25.213Z,16.90
2023-03-08T22:27:51.812Z,15.00
2023-03-08T22:30:18.562Z,15.93
2023-03-08T22:32:45.399Z,15.65
2023-03-08T22:35:14.497Z,15.90
2023-03-08T22:37:43.934Z,15.05
2023-03-08T22:40:13.352Z,16.05
2023-03-08T22:42:42.702Z,13.90
2023-03-08T22:45:12.151Z,15.93
2023-03-08T22:47:41.262Z,17.05
2023-03-08T22:50:10.583Z,17.98
2023-03-08T22:52:37.360Z,17.80
2023-03-08T22:55:04.592Z,17.25
2023-03-08T22:57:31.480Z,16.92
2023-03-08T22:59:58.414Z,17.30
2023-03-08T23:02:25.235Z,20.38
2023-03-08T23:04:51.993Z,18.80
2023-03-08T23:07:18.818Z,15.02
2023-03-08T23:09:45.472Z,16.33
2023-03-08T23:12:17.938Z,17.98
2023-03-08T23:14:46.949Z,18.55
2023-03-08T23:17:13.649Z,16.02
2023-03-08T23:19:45.207Z,18.20
2023-03-08T23:22:14.470Z,15.70
2023-03-08T23:24:43.506Z,16.05
2023-03-08T23:27:10.394Z,15.55
2023-03-08T23:29:37.341Z,16.85
2023-03-08T23:32:07.245Z,16.48
2023-03-08T23:34:39.497Z,23.77
2023-03-08T23:37:09.403Z,14.98
2023-03-08T23:39:36.143Z,15.18
2023-03-08T23:42:07.029Z,17.02
2023-03-08T23:44:34.067Z,15.63
2023-03-08T23:47:03.125Z,14.18
2023-03-08T23:49:29.907Z,14.07
2023-03-08T23:51:56.657Z,16.13
2023-03-08T23:54:23.550Z,15.23
2023-03-08T23:56:52.910Z,13.82
2023-03-08T23:59:22.148Z,12.77
